sensor_id;sensor_type;location;lat;lon;timestamp;P1;durP1;ratioP1;P2;durP2;ratioP2
72603;SDS011;60645;56.968;24.196;2023-02-15T00:01:41;15.73;;;6.60;;
72603;SDS011;60645;56.968;24.196;2023-02-15T00:04:09;17.25;;;7.05;;
72603;SDS011;60645;56.968;24.196;2023-02-15T00:06:38;16.27;;;6.63;;
72603;SDS011;60645;56.968;24.196;2023-02-15T00:09:06;16.90;;;6.57;;
72603;SDS011;60645;56.968;24.196;2023-02-15T00:11:33;21.52;;;7.63;;
72603;SDS011;60645;56.968;24.196;2023-02-15T00:14:07;16.83;;;7.00;;
72603;SDS011;60645;56.968;24.196;2023-02-15T00:16:35;16.90;;;6.78;;
72603;SDS011;60645;56.968;24.196;2023-02-15T00:19:02;15.70;;;6.57;;
72603;SDS011;60645;56.968;24.196;2023-02-15T00:21:30;15.77;;;6.47;;
72603;SDS011;60645;56.968;24.196;2023-02-15T00:23:58;19.27;;;7.65;;
72603;SDS011;60645;56.968;24.196;2023-02-15T00:26:27;18.67;;;7.70;;
72603;SDS011;60645;56.968;24.196;2023-02-15T00:28:54;16.33;;;7.43;;
72603;SDS011;60645;56.968;24.196;2023-02-15T00:31:21;18.20;;;7.65;;
72603;SDS011;60645;56.968;24.196;2023-02-15T00:33:48;19.63;;;8.05;;
72603;SDS011;60645;56.968;24.196;2023-02-15T00:36:16;20.52;;;8.43;;
72603;SDS011;60645;56.968;24.196;2023-02-15T00:38:43;21.83;;;8.40;;
72603;SDS011;60645;56.968;24.196;2023-02-15T00:41:09;21.55;;;8.95;;
72603;SDS011;60645;56.968;24.196;2023-02-15T00:43:36;18.77;;;8.10;;
72603;SDS011;60645;56.968;24.196;2023-02-15T00:46:04;21.15;;;7.43;;
72603;SDS011;60645;56.968;24.196;2023-02-15T00:48:31;17.33;;;7.38;;
72603;SDS011;60645;56.968;24.196;2023-02-15T00:50:59;18.13;;;8.02;;
72603;SDS011;60645;56.968;24.196;2023-02-15T00:53:27;23.77;;;7.72;;
72603;SDS011;60645;56.968;24.196;2023-02-15T00:55:56;14.82;;;6.28;;
72603;SDS011;60645;56.968;24.196;2023-02-15T00:58:23;15.85;;;6.88;;
72603;SDS011;60645;56.968;24.196;2023-02-15T01:00:51;15.48;;;5.90;;
72603;SDS011;60645;56.968;24.196;2023-02-15T01:03:19;11.63;;;5.22;;
72603;SDS011;60645;56.968;24.196;2023-02-15T01:05:48;10.98;;;5.40;;
72603;SDS011;60645;56.968;24.196;2023-02-15T01:08:15;11.30;;;5.05;;
72603;SDS011;60645;56.968;24.196;2023-02-15T01:10:42;16.55;;;5.13;;
72603;SDS011;60645;56.968;24.196;2023-02-15T01:13:11;11.25;;;4.65;;
72603;SDS011;60645;56.968;24.196;2023-02-15T01:15:39;11.65;;;4.65;;
72603;SDS011;60645;56.968;24.196;2023-02-15T01:18:09;14.35;;;4.40;;
72603;SDS011;60645;56.968;24.196;2023-02-15T01:20:38;15.05;;;4.93;;
72603;SDS011;60645;56.968;24.196;2023-02-15T01:23:07;14.75;;;4.80;;
72603;SDS011;60645;56.968;24.196;2023-02-15T01:25:35;12.68;;;4.20;;
72603;SDS011;60645;56.968;24.196;2023-02-15T01:28:02;10.93;;;5.00;;
72603;SDS011;60645;56.968;24.196;2023-02-15T01:30:30;11.90;;;4.97;;
72603;SDS011;60645;56.968;24.196;2023-02-15T01:32:58;11.40;;;4.80;;
72603;SDS011;60645;56.968;24.196;2023-02-15T01:35:27;15.10;;;6.13;;
72603;SDS011;60645;56.968;24.196;2023-02-15T01:37:54;13.27;;;6.18;;
72603;SDS011;60645;56.968;24.196;2023-02-15T01:40:23;16.70;;;5.93;;
72603;SDS011;60645;56.968;24.196;2023-02-15T01:42:51;11.82;;;5.07;;
72603;SDS011;60645;56.968;24.196;2023-02-15T01:48:24;11.48;;;4.43;;
72603;SDS011;60645;56.968;24.196;2023-02-15T01:50:58;10.48;;;4.85;;
72603;SDS011;60645;56.968;24.196;2023-02-15T01:56:02;11.20;;;4.10;;
72603;SDS011;60645;56.968;24.196;2023-02-15T01:58:48;17.13;;;5.68;;
72603;SDS011;60645;56.968;24.196;2023-02-15T02:01:18;15.07;;;5.15;;
72603;SDS011;60645;56.968;24.196;2023-02-15T02:06:18;16.60;;;6.03;;
72603;SDS011;60645;56.968;24.196;2023-02-15T02:08:47;14.18;;;5.63;;
72603;SDS011;60645;56.968;24.196;2023-02-15T02:11:14;15.85;;;6.15;;
72603;SDS011;60645;56.968;24.196;2023-02-15T02:13:42;13.20;;;6.05;;
72603;SDS011;60645;56.968;24.196;2023-02-15T02:24:32;15.60;;;6.20;;
72603;SDS011;60645;56.968;24.196;2023-02-15T02:33:19;16.60;;;5.57;;
72603;SDS011;60645;56.968;24.196;2023-02-15T02:38:33;10.52;;;4.28;;
72603;SDS011;60645;56.968;24.196;2023-02-15T02:49:08;7.93;;;3.50;;
72603;SDS011;60645;56.968;24.196;2023-02-15T02:51:35;8.73;;;2.80;;
72603;SDS011;60645;56.968;24.196;2023-02-15T02:54:03;8.93;;;3.25;;
72603;SDS011;60645;56.968;24.196;2023-02-15T02:59:07;7.35;;;3.03;;
72603;SDS011;60645;56.968;24.196;2023-02-15T03:01:40;8.38;;;2.58;;
72603;SDS011;60645;56.968;24.196;2023-02-15T03:04:17;7.93;;;2.47;;
72603;SDS011;60645;56.968;24.196;2023-02-15T03:06:52;7.05;;;2.45;;
72603;SDS011;60645;56.968;24.196;2023-02-15T03:09:28;8.10;;;2.50;;
72603;SDS011;60645;56.968;24.196;2023-02-15T03:12:11;6.57;;;1.95;;
72603;SDS011;60645;56.968;24.196;2023-02-15T03:14:40;7.35;;;2.38;;
72603;SDS011;60645;56.968;24.196;2023-02-15T03:17:09;8.77;;;2.50;;
72603;SDS011;60645;56.968;24.196;2023-02-15T03:19:38;6.88;;;2.42;;
72603;SDS011;60645;56.968;24.196;2023-02-15T03:22:08;5.78;;;2.17;;
72603;SDS011;60645;56.968;24.196;2023-02-15T03:27:11;8.43;;;2.60;;
72603;SDS011;60645;56.968;24.196;2023-02-15T03:29:45;7.18;;;2.35;;
72603;SDS011;60645;56.968;24.196;2023-02-15T03:32:16;6.90;;;2.30;;
72603;SDS011;60645;56.968;24.196;2023-02-15T03:34:43;6.10;;;2.72;;
72603;SDS011;60645;56.968;24.196;2023-02-15T03:37:26;9.38;;;2.72;;
72603;SDS011;60645;56.968;24.196;2023-02-15T03:39:58;7.28;;;2.67;;
72603;SDS011;60645;56.968;24.196;2023-02-15T03:42:54;9.20;;;2.95;;
72603;SDS011;60645;56.968;24.196;2023-02-15T03:45:45;7.55;;;2.42;;
72603;SDS011;60645;56.968;24.196;2023-02-15T03:48:25;7.35;;;2.97;;
72603;SDS011;60645;56.968;24.196;2023-02-15T03:50:57;9.25;;;3.58;;
72603;SDS011;60645;56.968;24.196;2023-02-15T03:53:46;10.18;;;4.03;;
72603;SDS011;60645;56.968;24.196;2023-02-15T03:56:15;12.43;;;4.57;;
72603;SDS011;60645;56.968;24.196;2023-02-15T03:58:42;10.00;;;4.07;;
72603;SDS011;60645;56.968;24.196;2023-02-15T04:01:31;12.18;;;4.43;;
72603;SDS011;60645;56.968;24.196;2023-02-15T04:04:39;9.82;;;4.28;;
72603;SDS011;60645;56.968;24.196;2023-02-15T04:07:09;11.77;;;5.28;;
72603;SDS011;60645;56.968;24.196;2023-02-15T04:09:36;12.55;;;4.70;;
72603;SDS011;60645;56.968;24.196;2023-02-15T04:12:23;11.63;;;5.07;;
72603;SDS011;60645;56.968;24.196;2023-02-15T04:14:50;11.02;;;4.05;;
72603;SDS011;60645;56.968;24.196;2023-02-15T04:17:36;12.20;;;5.15;;
72603;SDS011;60645;56.968;24.196;2023-02-15T04:20:03;10.73;;;4.55;;
72603;SDS011;60645;56.968;24.196;2023-02-15T04:22:49;13.25;;;5.53;;
72603;SDS011;60645;56.968;24.196;2023-02-15T04:25:34;12.60;;;5.35;;
72603;SDS011;60645;56.968;24.196;2023-02-15T04:28:01;9.30;;;5.03;;
72603;SDS011;60645;56.968;24.196;2023-02-15T04:30:31;12.60;;;4.53;;
72603;SDS011;60645;56.968;24.196;2023-02-15T04:32:58;14.30;;;5.43;;
72603;SDS011;60645;56.968;24.196;2023-02-15T04:35:25;11.65;;;5.32;;
72603;SDS011;60645;56.968;24.196;2023-02-15T04:37:52;10.90;;;5.32;;
72603;SDS011;60645;56.968;24.196;2023-02-15T04:40:18;14.43;;;5.28;;
72603;SDS011;60645;56.968;24.196;2023-02-15T04:42:48;10.27;;;4.60;;
72603;SDS011;60645;56.968;24.196;2023-02-15T04:45:16;10.50;;;5.07;;
72603;SDS011;60645;56.968;24.196;2023-02-15T04:47:43;12.35;;;5.32;;
72603;SDS011;60645;56.968;24.196;2023-02-15T04:50:10;14.65;;;5.65;;
72603;SDS011;60645;56.968;24.196;2023-02-15T04:52:37;9.73;;;4.60;;
72603;SDS011;60645;56.968;24.196;2023-02-15T04:55:05;12.52;;;4.65;;
72603;SDS011;60645;56.968;24.196;2023-02-15T04:57:32;12.23;;;5.15;;
72603;SDS011;60645;56.968;24.196;2023-02-15T04:59:59;11.43;;;5.35;;
72603;SDS011;60645;56.968;24.196;2023-02-15T05:02:26;11.30;;;5.68;;
72603;SDS011;60645;56.968;24.196;2023-02-15T05:04:53;20.15;;;6.75;;
72603;SDS011;60645;56.968;24.196;2023-02-15T05:07:19;12.40;;;6.60;;
72603;SDS011;60645;56.968;24.196;2023-02-15T05:09:46;12.77;;;6.60;;
72603;SDS011;60645;56.968;24.196;2023-02-15T05:12:13;14.73;;;5.97;;
72603;SDS011;60645;56.968;24.196;2023-02-15T05:14:40;13.18;;;6.20;;
72603;SDS011;60645;56.968;24.196;2023-02-15T05:17:07;15.80;;;6.38;;
72603;SDS011;60645;56.968;24.196;2023-02-15T05:19:34;12.60;;;6.03;;
72603;SDS011;60645;56.968;24.196;2023-02-15T05:22:01;13.35;;;5.65;;
72603;SDS011;60645;56.968;24.196;2023-02-15T05:24:28;13.75;;;5.60;;
72603;SDS011;60645;56.968;24.196;2023-02-15T05:27:13;16.27;;;5.30;;
72603;SDS011;60645;56.968;24.196;2023-02-15T05:29:58;11.48;;;4.97;;
72603;SDS011;60645;56.968;24.196;2023-02-15T05:32:26;15.13;;;6.00;;
72603;SDS011;60645;56.968;24.196;2023-02-15T05:34:53;19.65;;;7.78;;
72603;SDS011;60645;56.968;24.196;2023-02-15T05:37:20;13.90;;;6.85;;
72603;SDS011;60645;56.968;24.196;2023-02-15T05:39:46;21.45;;;8.25;;
72603;SDS011;60645;56.968;24.196;2023-02-15T05:42:14;21.77;;;8.77;;
72603;SDS011;60645;56.968;24.196;2023-02-15T05:44:40;17.42;;;8.88;;
72603;SDS011;60645;56.968;24.196;2023-02-15T05:47:07;18.73;;;7.88;;
72603;SDS011;60645;56.968;24.196;2023-02-15T05:49:34;19.20;;;8.38;;
72603;SDS011;60645;56.968;24.196;2023-02-15T05:52:02;17.88;;;8.18;;
72603;SDS011;60645;56.968;24.196;2023-02-15T05:54:29;14.82;;;6.78;;
72603;SDS011;60645;56.968;24.196;2023-02-15T05:56:56;16.90;;;6.68;;
72603;SDS011;60645;56.968;24.196;2023-02-15T05:59:23;14.10;;;6.18;;
72603;SDS011;60645;56.968;24.196;2023-02-15T06:01:50;14.52;;;6.78;;
72603;SDS011;60645;56.968;24.196;2023-02-15T06:04:17;14.32;;;7.30;;
72603;SDS011;60645;56.968;24.196;2023-02-15T06:06:44;17.65;;;7.95;;
72603;SDS011;60645;56.968;24.196;2023-02-15T06:09:12;19.15;;;7.60;;
72603;SDS011;60645;56.968;24.196;2023-02-15T06:11:39;15.65;;;7.72;;
72603;SDS011;60645;56.968;24.196;2023-02-15T06:14:06;23.60;;;8.40;;
72603;SDS011;60645;56.968;24.196;2023-02-15T06:16:33;17.08;;;8.20;;
72603;SDS011;60645;56.968;24.196;2023-02-15T06:19:00;20.92;;;7.68;;
72603;SDS011;60645;56.968;24.196;2023-02-15T06:21:28;16.05;;;7.15;;
72603;SDS011;60645;56.968;24.196;2023-02-15T06:23:56;16.30;;;7.55;;
72603;SDS011;60645;56.968;24.196;2023-02-15T06:26:23;15.10;;;6.85;;
72603;SDS011;60645;56.968;24.196;2023-02-15T06:28:50;13.10;;;6.20;;
72603;SDS011;60645;56.968;24.196;2023-02-15T06:31:17;13.55;;;6.20;;
72603;SDS011;60645;56.968;24.196;2023-02-15T06:33:44;15.20;;;6.82;;
72603;SDS011;60645;56.968;24.196;2023-02-15T06:36:11;15.68;;;6.50;;
72603;SDS011;60645;56.968;24.196;2023-02-15T06:38:40;14.90;;;5.45;;
72603;SDS011;60645;56.968;24.196;2023-02-15T06:41:07;12.25;;;5.60;;
72603;SDS011;60645;56.968;24.196;2023-02-15T06:43:34;10.98;;;4.85;;
72603;SDS011;60645;56.968;24.196;2023-02-15T06:46:01;10.05;;;5.53;;
72603;SDS011;60645;56.968;24.196;2023-02-15T06:48:28;9.93;;;4.00;;
72603;SDS011;60645;56.968;24.196;2023-02-15T06:50:55;10.98;;;4.25;;
72603;SDS011;60645;56.968;24.196;2023-02-15T06:53:22;10.57;;;3.83;;
72603;SDS011;60645;56.968;24.196;2023-02-15T06:55:49;8.10;;;4.47;;
72603;SDS011;60645;56.968;24.196;2023-02-15T06:58:16;10.30;;;4.82;;
72603;SDS011;60645;56.968;24.196;2023-02-15T07:00:43;7.70;;;4.47;;
72603;SDS011;60645;56.968;24.196;2023-02-15T07:03:12;14.13;;;5.07;;
72603;SDS011;60645;56.968;24.196;2023-02-15T07:05:39;9.82;;;5.20;;
72603;SDS011;60645;56.968;24.196;2023-02-15T07:08:06;10.85;;;4.97;;
72603;SDS011;60645;56.968;24.196;2023-02-15T07:10:35;9.95;;;3.97;;
72603;SDS011;60645;56.968;24.196;2023-02-15T07:13:02;10.18;;;4.82;;
72603;SDS011;60645;56.968;24.196;2023-02-15T07:15:29;11.55;;;4.25;;
72603;SDS011;60645;56.968;24.196;2023-02-15T07:17:57;8.05;;;4.00;;
72603;SDS011;60645;56.968;24.196;2023-02-15T07:20:25;9.48;;;3.97;;
72603;SDS011;60645;56.968;24.196;2023-02-15T07:22:52;8.23;;;4.07;;
72603;SDS011;60645;56.968;24.196;2023-02-15T07:25:19;11.52;;;3.97;;
72603;SDS011;60645;56.968;24.196;2023-02-15T07:27:46;8.52;;;4.00;;
72603;SDS011;60645;56.968;24.196;2023-02-15T07:30:15;10.27;;;3.65;;
72603;SDS011;60645;56.968;24.196;2023-02-15T07:32:42;9.65;;;4.40;;
72603;SDS011;60645;56.968;24.196;2023-02-15T07:35:30;11.15;;;4.72;;
72603;SDS011;60645;56.968;24.196;2023-02-15T07:37:58;12.68;;;5.57;;
72603;SDS011;60645;56.968;24.196;2023-02-15T07:40:25;12.00;;;4.05;;
72603;SDS011;60645;56.968;24.196;2023-02-15T07:42:52;7.15;;;3.63;;
72603;SDS011;60645;56.968;24.196;2023-02-15T07:45:21;9.38;;;4.43;;
72603;SDS011;60645;56.968;24.196;2023-02-15T07:47:48;8.10;;;3.97;;
72603;SDS011;60645;56.968;24.196;2023-02-15T07:50:15;7.70;;;3.78;;
72603;SDS011;60645;56.968;24.196;2023-02-15T07:52:42;7.95;;;3.65;;
72603;SDS011;60645;56.968;24.196;2023-02-15T07:55:09;11.35;;;4.13;;
72603;SDS011;60645;56.968;24.196;2023-02-15T07:57:45;13.00;;;5.20;;
72603;SDS011;60645;56.968;24.196;2023-02-15T08:00:14;12.38;;;6.20;;
72603;SDS011;60645;56.968;24.196;2023-02-15T08:02:49;12.13;;;5.25;;
72603;SDS011;60645;56.968;24.196;2023-02-15T08:05:36;10.55;;;5.10;;
72603;SDS011;60645;56.968;24.196;2023-02-15T08:08:03;10.57;;;4.32;;
72603;SDS011;60645;56.968;24.196;2023-02-15T08:10:31;12.82;;;5.15;;
72603;SDS011;60645;56.968;24.196;2023-02-15T08:13:16;12.18;;;5.20;;
72603;SDS011;60645;56.968;24.196;2023-02-15T08:15:49;10.50;;;4.45;;
72603;SDS011;60645;56.968;24.196;2023-02-15T08:18:17;8.85;;;4.50;;
72603;SDS011;60645;56.968;24.196;2023-02-15T08:20:48;9.63;;;4.18;;
72603;SDS011;60645;56.968;24.196;2023-02-15T08:23:16;8.68;;;4.03;;
72603;SDS011;60645;56.968;24.196;2023-02-15T08:25:43;9.07;;;3.85;;
72603;SDS011;60645;56.968;24.196;2023-02-15T08:28:10;8.30;;;3.75;;
72603;SDS011;60645;56.968;24.196;2023-02-15T08:30:37;7.18;;;3.25;;
72603;SDS011;60645;56.968;24.196;2023-02-15T08:33:04;8.45;;;3.90;;
72603;SDS011;60645;56.968;24.196;2023-02-15T08:35:31;7.10;;;3.58;;
72603;SDS011;60645;56.968;24.196;2023-02-15T08:37:58;9.70;;;3.90;;
72603;SDS011;60645;56.968;24.196;2023-02-15T08:40:25;9.52;;;4.30;;
72603;SDS011;60645;56.968;24.196;2023-02-15T08:42:52;9.48;;;4.43;;
72603;SDS011;60645;56.968;24.196;2023-02-15T08:45:18;9.20;;;3.88;;
72603;SDS011;60645;56.968;24.196;2023-02-15T08:47:45;9.30;;;4.03;;
72603;SDS011;60645;56.968;24.196;2023-02-15T08:50:12;6.65;;;3.53;;
72603;SDS011;60645;56.968;24.196;2023-02-15T08:52:39;10.63;;;4.03;;
72603;SDS011;60645;56.968;24.196;2023-02-15T08:55:06;13.18;;;4.60;;
72603;SDS011;60645;56.968;24.196;2023-02-15T08:57:33;8.45;;;3.97;;
72603;SDS011;60645;56.968;24.196;2023-02-15T09:00:00;8.15;;;4.03;;
72603;SDS011;60645;56.968;24.196;2023-02-15T09:02:28;14.73;;;5.72;;
72603;SDS011;60645;56.968;24.196;2023-02-15T09:04:55;8.43;;;4.05;;
72603;SDS011;60645;56.968;24.196;2023-02-15T09:07:22;7.88;;;3.60;;
72603;SDS011;60645;56.968;24.196;2023-02-15T09:09:49;9.70;;;3.38;;
72603;SDS011;60645;56.968;24.196;2023-02-15T09:12:16;9.68;;;4.15;;
72603;SDS011;60645;56.968;24.196;2023-02-15T09:14:43;9.68;;;4.28;;
72603;SDS011;60645;56.968;24.196;2023-02-15T09:17:10;8.65;;;4.13;;
72603;SDS011;60645;56.968;24.196;2023-02-15T09:19:40;11.35;;;4.78;;
72603;SDS011;60645;56.968;24.196;2023-02-15T09:22:07;8.27;;;4.28;;
72603;SDS011;60645;56.968;24.196;2023-02-15T09:24:34;8.70;;;4.15;;
72603;SDS011;60645;56.968;24.196;2023-02-15T09:27:01;9.52;;;4.43;;
72603;SDS011;60645;56.968;24.196;2023-02-15T09:29:28;8.93;;;4.40;;
72603;SDS011;60645;56.968;24.196;2023-02-15T09:31:55;5.95;;;3.45;;
72603;SDS011;60645;56.968;24.196;2023-02-15T09:34:22;8.30;;;3.90;;
72603;SDS011;60645;56.968;24.196;2023-02-15T09:36:51;8.98;;;4.57;;
72603;SDS011;60645;56.968;24.196;2023-02-15T09:39:19;9.18;;;4.18;;
72603;SDS011;60645;56.968;24.196;2023-02-15T09:50:33;11.23;;;5.35;;
72603;SDS011;60645;56.968;24.196;2023-02-15T09:56:32;9.25;;;4.85;;
72603;SDS011;60645;56.968;24.196;2023-02-15T09:59:28;9.10;;;4.20;;
72603;SDS011;60645;56.968;24.196;2023-02-15T10:28:45;5.65;;;2.33;;
72603;SDS011;60645;56.968;24.196;2023-02-15T10:31:28;5.05;;;2.53;;
72603;SDS011;60645;56.968;24.196;2023-02-15T10:34:20;6.13;;;2.63;;
72603;SDS011;60645;56.968;24.196;2023-02-15T10:43:25;3.15;;;1.92;;
72603;SDS011;60645;56.968;24.196;2023-02-15T11:07:40;6.07;;;2.47;;
72603;SDS011;60645;56.968;24.196;2023-02-15T11:13:19;3.53;;;2.17;;
72603;SDS011;60645;56.968;24.196;2023-02-15T11:15:53;3.60;;;2.03;;
72603;SDS011;60645;56.968;24.196;2023-02-15T11:23:46;4.72;;;2.63;;
72603;SDS011;60645;56.968;24.196;2023-02-15T11:26:31;7.28;;;3.05;;
72603;SDS011;60645;56.968;24.196;2023-02-15T11:29:09;5.22;;;2.92;;
72603;SDS011;60645;56.968;24.196;2023-02-15T11:31:41;4.93;;;2.83;;
72603;SDS011;60645;56.968;24.196;2023-02-15T11:34:27;5.10;;;3.17;;
72603;SDS011;60645;56.968;24.196;2023-02-15T11:37:11;5.35;;;3.10;;
72603;SDS011;60645;56.968;24.196;2023-02-15T11:39:43;6.15;;;3.17;;
72603;SDS011;60645;56.968;24.196;2023-02-15T11:42:14;6.97;;;3.60;;
72603;SDS011;60645;56.968;24.196;2023-02-15T11:47:14;5.97;;;3.05;;
72603;SDS011;60645;56.968;24.196;2023-02-15T11:49:41;4.03;;;2.65;;
72603;SDS011;60645;56.968;24.196;2023-02-15T11:52:12;12.75;;;4.13;;
72603;SDS011;60645;56.968;24.196;2023-02-15T11:54:51;9.68;;;3.35;;
72603;SDS011;60645;56.968;24.196;2023-02-15T11:57:36;6.35;;;2.83;;
72603;SDS011;60645;56.968;24.196;2023-02-15T12:02:42;4.95;;;1.90;;
72603;SDS011;60645;56.968;24.196;2023-02-15T12:05:14;3.65;;;2.03;;
72603;SDS011;60645;56.968;24.196;2023-02-15T12:07:46;8.80;;;2.67;;
72603;SDS011;60645;56.968;24.196;2023-02-15T12:10:23;8.40;;;3.22;;
72603;SDS011;60645;56.968;24.196;2023-02-15T12:15:36;6.97;;;3.55;;
72603;SDS011;60645;56.968;24.196;2023-02-15T12:18:04;6.43;;;3.22;;
72603;SDS011;60645;56.968;24.196;2023-02-15T12:20:32;4.85;;;2.83;;
72603;SDS011;60645;56.968;24.196;2023-02-15T12:23:05;4.50;;;2.20;;
72603;SDS011;60645;56.968;24.196;2023-02-15T12:25:56;3.55;;;1.60;;
72603;SDS011;60645;56.968;24.196;2023-02-15T12:28:34;4.93;;;2.65;;
72603;SDS011;60645;56.968;24.196;2023-02-15T12:33:59;4.53;;;2.78;;
72603;SDS011;60645;56.968;24.196;2023-02-15T12:36:29;3.80;;;2.33;;
72603;SDS011;60645;56.968;24.196;2023-02-15T12:41:29;7.90;;;2.65;;
72603;SDS011;60645;56.968;24.196;2023-02-15T12:44:04;5.82;;;2.30;;
72603;SDS011;60645;56.968;24.196;2023-02-15T12:46:31;5.18;;;2.38;;
72603;SDS011;60645;56.968;24.196;2023-02-15T12:57:28;7.65;;;3.65;;
72603;SDS011;60645;56.968;24.196;2023-02-15T13:00:24;4.65;;;3.28;;
72603;SDS011;60645;56.968;24.196;2023-02-15T13:02:57;5.57;;;3.47;;
72603;SDS011;60645;56.968;24.196;2023-02-15T13:05:38;10.27;;;4.28;;
72603;SDS011;60645;56.968;24.196;2023-02-15T13:08:20;10.20;;;5.07;;
72603;SDS011;60645;56.968;24.196;2023-02-15T13:11:11;16.20;;;7.10;;
72603;SDS011;60645;56.968;24.196;2023-02-15T13:13:47;18.08;;;9.38;;
72603;SDS011;60645;56.968;24.196;2023-02-15T13:18:54;14.43;;;6.95;;
72603;SDS011;60645;56.968;24.196;2023-02-15T13:21:24;17.52;;;9.13;;
72603;SDS011;60645;56.968;24.196;2023-02-15T13:23:55;21.30;;;11.85;;
72603;SDS011;60645;56.968;24.196;2023-02-15T13:26:31;16.80;;;8.73;;
72603;SDS011;60645;56.968;24.196;2023-02-15T13:29:12;17.35;;;8.18;;
72603;SDS011;60645;56.968;24.196;2023-02-15T13:31:50;21.92;;;10.35;;
72603;SDS011;60645;56.968;24.196;2023-02-15T13:34:23;26.52;;;12.65;;
72603;SDS011;60645;56.968;24.196;2023-02-15T13:42:22;15.98;;;8.93;;
72603;SDS011;60645;56.968;24.196;2023-02-15T13:48:12;13.77;;;7.78;;
72603;SDS011;60645;56.968;24.196;2023-02-15T13:54:05;16.27;;;8.13;;
72603;SDS011;60645;56.968;24.196;2023-02-15T14:00:24;16.65;;;8.10;;
72603;SDS011;60645;56.968;24.196;2023-02-15T14:02:57;17.15;;;7.40;;
72603;SDS011;60645;56.968;24.196;2023-02-15T14:05:29;18.27;;;7.68;;
72603;SDS011;60645;56.968;24.196;2023-02-15T14:08:57;11.50;;;5.90;;
72603;SDS011;60645;56.968;24.196;2023-02-15T14:19:33;16.75;;;7.95;;
72603;SDS011;60645;56.968;24.196;2023-02-15T14:24:55;11.00;;;6.15;;
72603;SDS011;60645;56.968;24.196;2023-02-15T14:30:38;12.00;;;6.75;;
72603;SDS011;60645;56.968;24.196;2023-02-15T14:33:19;13.20;;;7.40;;
72603;SDS011;60645;56.968;24.196;2023-02-15T14:36:02;15.88;;;8.15;;
72603;SDS011;60645;56.968;24.196;2023-02-15T14:38:38;15.48;;;7.35;;
72603;SDS011;60645;56.968;24.196;2023-02-15T14:42:11;12.38;;;6.10;;
72603;SDS011;60645;56.968;24.196;2023-02-15T14:44:33;11.90;;;5.75;;
72603;SDS011;60645;56.968;24.196;2023-02-15T14:49:48;12.52;;;6.95;;
72603;SDS011;60645;56.968;24.196;2023-02-15T14:52:15;13.57;;;6.68;;
72603;SDS011;60645;56.968;24.196;2023-02-15T15:05:18;21.23;;;9.45;;
72603;SDS011;60645;56.968;24.196;2023-02-15T15:07:51;18.40;;;8.77;;
72603;SDS011;60645;56.968;24.196;2023-02-15T15:12:51;15.00;;;7.68;;
72603;SDS011;60645;56.968;24.196;2023-02-15T15:20:44;16.52;;;8.23;;
72603;SDS011;60645;56.968;24.196;2023-02-15T15:25:48;17.67;;;9.65;;
72603;SDS011;60645;56.968;24.196;2023-02-15T15:31:06;19.85;;;10.45;;
72603;SDS011;60645;56.968;24.196;2023-02-15T15:42:13;18.15;;;10.07;;
72603;SDS011;60645;56.968;24.196;2023-02-15T15:50:56;21.77;;;11.10;;
72603;SDS011;60645;56.968;24.196;2023-02-15T15:53:26;23.08;;;11.27;;
72603;SDS011;60645;56.968;24.196;2023-02-15T15:55:57;20.00;;;9.45;;
72603;SDS011;60645;56.968;24.196;2023-02-15T15:58:40;22.08;;;11.07;;
72603;SDS011;60645;56.968;24.196;2023-02-15T16:01:22;27.08;;;11.23;;
72603;SDS011;60645;56.968;24.196;2023-02-15T16:03:52;20.38;;;10.52;;
72603;SDS011;60645;56.968;24.196;2023-02-15T16:06:32;19.88;;;10.57;;
72603;SDS011;60645;56.968;24.196;2023-02-15T16:09:11;20.75;;;10.73;;
72603;SDS011;60645;56.968;24.196;2023-02-15T16:11:57;23.20;;;11.48;;
72603;SDS011;60645;56.968;24.196;2023-02-15T16:14:37;20.67;;;9.55;;
72603;SDS011;60645;56.968;24.196;2023-02-15T16:17:28;22.13;;;10.70;;
72603;SDS011;60645;56.968;24.196;2023-02-15T16:20:02;26.90;;;12.30;;
72603;SDS011;60645;56.968;24.196;2023-02-15T16:22:33;29.08;;;12.50;;
72603;SDS011;60645;56.968;24.196;2023-02-15T16:27:46;24.02;;;10.20;;
72603;SDS011;60645;56.968;24.196;2023-02-15T16:30:18;27.30;;;13.52;;
72603;SDS011;60645;56.968;24.196;2023-02-15T16:32:48;23.65;;;10.30;;
72603;SDS011;60645;56.968;24.196;2023-02-15T16:35:16;25.70;;;12.25;;
72603;SDS011;60645;56.968;24.196;2023-02-15T16:37:45;25.50;;;11.20;;
72603;SDS011;60645;56.968;24.196;2023-02-15T16:42:51;25.30;;;11.43;;
72603;SDS011;60645;56.968;24.196;2023-02-15T16:45:22;23.13;;;11.07;;
72603;SDS011;60645;56.968;24.196;2023-02-15T16:47:53;19.25;;;9.77;;
72603;SDS011;60645;56.968;24.196;2023-02-15T16:50:27;19.92;;;10.05;;
72603;SDS011;60645;56.968;24.196;2023-02-15T16:53:04;20.58;;;9.27;;
72603;SDS011;60645;56.968;24.196;2023-02-15T16:55:40;20.63;;;9.77;;
72603;SDS011;60645;56.968;24.196;2023-02-15T16:58:12;18.02;;;8.65;;
72603;SDS011;60645;56.968;24.196;2023-02-15T17:00:42;23.20;;;11.02;;
72603;SDS011;60645;56.968;24.196;2023-02-15T17:05:44;24.70;;;11.90;;
72603;SDS011;60645;56.968;24.196;2023-02-15T17:08:17;22.67;;;11.23;;
72603;SDS011;60645;56.968;24.196;2023-02-15T17:16:31;30.67;;;13.40;;
72603;SDS011;60645;56.968;24.196;2023-02-15T17:19:01;26.80;;;12.38;;
72603;SDS011;60645;56.968;24.196;2023-02-15T17:21:37;25.83;;;12.35;;
72603;SDS011;60645;56.968;24.196;2023-02-15T17:24:13;25.38;;;11.77;;
72603;SDS011;60645;56.968;24.196;2023-02-15T17:26:53;25.40;;;10.30;;
72603;SDS011;60645;56.968;24.196;2023-02-15T17:29:29;28.98;;;12.55;;
72603;SDS011;60645;56.968;24.196;2023-02-15T17:32:10;22.73;;;9.93;;
72603;SDS011;60645;56.968;24.196;2023-02-15T17:40:01;28.40;;;11.27;;
72603;SDS011;60645;56.968;24.196;2023-02-15T17:42:41;20.30;;;8.55;;
72603;SDS011;60645;56.968;24.196;2023-02-15T17:45:08;20.17;;;7.50;;
72603;SDS011;60645;56.968;24.196;2023-02-15T17:47:38;24.67;;;9.90;;
72603;SDS011;60645;56.968;24.196;2023-02-15T17:50:06;17.80;;;9.05;;
72603;SDS011;60645;56.968;24.196;2023-02-15T17:52:35;18.80;;;9.18;;
72603;SDS011;60645;56.968;24.196;2023-02-15T17:55:07;24.25;;;10.77;;
72603;SDS011;60645;56.968;24.196;2023-02-15T17:57:59;21.98;;;10.60;;
72603;SDS011;60645;56.968;24.196;2023-02-15T18:00:27;21.13;;;10.50;;
72603;SDS011;60645;56.968;24.196;2023-02-15T18:03:14;23.95;;;11.43;;
72603;SDS011;60645;56.968;24.196;2023-02-15T18:05:59;19.92;;;10.85;;
72603;SDS011;60645;56.968;24.196;2023-02-15T18:08:45;19.60;;;10.43;;
72603;SDS011;60645;56.968;24.196;2023-02-15T18:11:31;18.40;;;8.70;;
72603;SDS011;60645;56.968;24.196;2023-02-15T18:14:05;18.58;;;8.55;;
72603;SDS011;60645;56.968;24.196;2023-02-15T18:16:38;24.30;;;11.10;;
72603;SDS011;60645;56.968;24.196;2023-02-15T18:19:15;23.10;;;11.27;;
72603;SDS011;60645;56.968;24.196;2023-02-15T18:21:44;22.17;;;11.40;;
72603;SDS011;60645;56.968;24.196;2023-02-15T18:24:14;19.90;;;10.50;;
72603;SDS011;60645;56.968;24.196;2023-02-15T18:26:43;25.13;;;10.20;;
72603;SDS011;60645;56.968;24.196;2023-02-15T18:29:11;24.63;;;11.13;;
72603;SDS011;60645;56.968;24.196;2023-02-15T18:31:38;20.08;;;9.70;;
72603;SDS011;60645;56.968;24.196;2023-02-15T18:34:08;21.50;;;11.35;;
72603;SDS011;60645;56.968;24.196;2023-02-15T18:36:47;24.35;;;11.98;;
72603;SDS011;60645;56.968;24.196;2023-02-15T18:39:25;22.83;;;11.00;;